Time;durP1;ratioP1;P1;durP2;ratioP2;P2;SDS_P1;SDS_P2;PMS_P1;PMS_P2;Temp;Humidity;BMP_temperature;BMP_pressure;BME280_temperature;BME280_humidity;BME280_pressure;Samples;Min_cycle;Max_cycle;Signal;HPM_P1;HPM_P2
2023/09/11 00:00:10;;;;;;;24.97;11.77;;;;;;;15.78;100.00;100542.55;1430396;90;21538;-81
2023/09/11 00:02:37;;;;;;;19.87;10.63;;;;;;;15.79;100.00;100545.56;1440629;91;21546;-81
2023/09/11 00:05:04;;;;;;;18.97;10.13;;;;;;;15.79;100.00;100542.90;1428061;90;21391;-83
2023/09/11 00:07:30;;;;;;;18.23;8.43;;;;;;;15.79;100.00;100541.56;1428165;90;21575;-82
2023/09/11 00:09:56;;;;;;;25.37;9.60;;;;;;;15.80;100.00;100543.73;1419103;91;22265;-82
2023/09/11 00:12:22;;;;;;;24.53;9.30;;;;;;;15.77;100.00;100540.91;1416817;91;21339;-82
2023/09/11 00:14:49;;;;;;;18.20;9.07;;;;;;;15.76;100.00;100537.89;1433367;91;21442;-81
2023/09/11 00:17:15;;;;;;;23.60;10.03;;;;;;;15.73;100.00;100538.25;1438524;91;21377;-82
2023/09/11 00:19:43;;;;;;;16.70;8.60;;;;;;;15.71;100.00;100534.95;1431674;91;21516;-82
2023/09/11 00:22:09;;;;;;;21.90;9.37;;;;;;;15.69;100.00;100539.63;1435422;91;21464;-82
2023/09/11 00:24:35;;;;;;;24.10;8.70;;;;;;;15.65;100.00;100532.11;1431724;91;21377;-82
2023/09/11 00:27:01;;;;;;;16.83;8.70;;;;;;;15.61;100.00;100530.31;1431978;91;22263;-82
2023/09/11 00:29:27;;;;;;;22.87;9.73;;;;;;;15.58;100.00;100524.83;1424429;91;21501;-80
2023/09/11 00:31:54;;;;;;;23.97;9.53;;;;;;;15.57;100.00;100525.02;1434149;90;21435;-79
2023/09/11 00:34:20;;;;;;;17.97;9.23;;;;;;;15.54;100.00;100522.71;1429229;90;22322;-80
2023/09/11 00:36:46;;;;;;;19.53;8.53;;;;;;;15.52;100.00;100527.38;1419959;91;21643;-80
2023/09/11 00:39:12;;;;;;;24.80;10.57;;;;;;;15.47;100.00;100528.41;1425842;91;21340;-80
2023/09/11 00:41:40;;;;;;;27.70;10.17;;;;;;;15.45;100.00;100525.08;1436717;91;21361;-80
2023/09/11 00:44:06;;;;;;;24.87;10.33;;;;;;;15.36;100.00;100520.30;1419124;91;21370;-79
2023/09/11 00:46:33;;;;;;;27.73;10.67;;;;;;;15.29;100.00;100518.86;1405814;91;21391;-80
2023/09/11 00:49:00;;;;;;;26.30;9.63;;;;;;;15.22;100.00;100520.58;1432347;91;22382;-80
2023/09/11 00:51:27;;;;;;;26.13;9.37;;;;;;;15.15;100.00;100510.78;1432230;91;22424;-80
2023/09/11 00:53:55;;;;;;;26.27;9.73;;;;;;;15.12;100.00;100511.96;1430231;91;21590;-80
2023/09/11 00:56:21;;;;;;;20.43;9.33;;;;;;;15.08;100.00;100510.66;1427705;91;21480;-81
2023/09/11 00:58:49;;;;;;;24.03;11.27;;;;;;;15.03;100.00;100518.34;1425965;91;21376;-80
2023/09/11 01:01:15;;;;;;;22.60;11.10;;;;;;;14.95;100.00;100518.37;1419507;91;21616;-80
2023/09/11 01:03:43;;;;;;;31.67;11.60;;;;;;;14.87;100.00;100512.09;1430699;91;21354;-80
2023/09/11 01:06:10;;;;;;;37.03;12.70;;;;;;;14.83;100.00;100510.77;1418606;91;21405;-80
2023/09/11 01:08:37;;;;;;;34.73;12.03;;;;;;;14.78;100.00;100511.78;1430116;91;21266;-81
2023/09/11 01:11:03;;;;;;;38.27;14.43;;;;;;;14.76;100.00;100512.95;1432084;91;21520;-81
2023/09/11 01:13:29;;;;;;;29.17;12.87;;;;;;;14.73;100.00;100511.97;1433259;91;21362;-80
2023/09/11 01:16:00;;;;;;;30.47;10.63;;;;;;;14.73;100.00;100514.63;1431160;91;21488;-80
2023/09/11 01:19:02;;;;;;;29.63;13.07;;;;;;;14.71;100.00;100508.16;1427585;91;21435;-79
2023/09/11 01:22:00;;;;;;;27.47;10.93;;;;;;;14.71;100.00;100510.83;1429204;91;21340;-76
2023/09/11 01:24:47;;;;;;;23.30;9.87;;;;;;;14.72;100.00;100511.14;1428679;91;21398;-77
2023/09/11 01:27:43;;;;;;;27.10;11.37;;;;;;;14.71;100.00;100512.16;1427738;91;21414;-79
2023/09/11 01:30:12;;;;;;;20.70;9.83;;;;;;;14.70;100.00;100507.81;1379933;94;21525;-79
2023/09/11 01:32:40;;;;;;;26.33;9.73;;;;;;;14.67;100.00;100508.16;1384226;95;21617;-80
2023/09/11 01:35:07;;;;;;;17.97;9.40;;;;;;;14.65;100.00;100510.19;1396560;91;21421;-79
2023/09/11 01:37:33;;;;;;;22.80;10.13;;;;;;;14.66;100.00;100507.84;1434073;91;22219;-79
2023/09/11 01:40:00;;;;;;;20.77;9.37;;;;;;;14.66;100.00;100513.17;1440955;90;21405;-79
2023/09/11 01:42:34;;;;;;;22.37;9.07;;;;;;;14.64;100.00;100516.50;1409224;91;21398;-79
2023/09/11 01:45:02;;;;;;;21.30;8.77;;;;;;;14.62;100.00;100509.20;1435817;91;22625;-79
2023/09/11 01:47:30;;;;;;;26.00;10.53;;;;;;;14.59;100.00;100509.04;1432845;91;21384;-79
2023/09/11 01:49:57;;;;;;;15.30;8.60;;;;;;;14.56;100.00;100511.22;1434964;91;21465;-79
2023/09/11 01:52:25;;;;;;;15.73;9.10;;;;;;;14.54;100.00;100510.55;1442638;91;21494;-79
2023/09/11 01:54:52;;;;;;;14.60;7.53;;;;;;;14.54;100.00;100507.89;1436150;90;21576;-79
2023/09/11 01:57:22;;;;;;;15.37;8.00;;;;;;;14.53;100.00;100508.88;1427679;91;21442;-79
2023/09/11 01:59:47;;;;;;;15.67;6.50;;;;;;;14.51;100.00;100506.88;1437065;91;21427;-79
2023/09/11 02:02:13;;;;;;;21.20;6.60;;;;;;;14.53;100.00;100500.88;1438822;91;21398;-79
2023/09/11 02:04:40;;;;;;;16.57;7.77;;;;;;;14.55;100.00;100496.22;1435540;90;21362;-78
2023/09/11 02:07:06;;;;;;;28.47;8.93;;;;;;;14.57;100.00;100502.22;1432664;91;21487;-79
2023/09/11 02:09:32;;;;;;;15.10;7.33;;;;;;;14.58;100.00;100498.54;1429630;91;22219;-79
2023/09/11 02:11:58;;;;;;;13.57;7.60;;;;;;;14.58;100.00;100498.54;1436306;91;21443;-79
2023/09/11 02:14:24;;;;;;;16.27;8.47;;;;;;;14.55;100.00;100500.22;1432158;91;21560;-80
2023/09/11 02:16:51;;;;;;;12.13;7.10;;;;;;;14.54;100.00;100506.56;1441497;90;21428;-80
2023/09/11 02:19:17;;;;;;;11.57;6.00;;;;;;;14.51;100.00;100494.89;1434513;91;21397;-80
2023/09/11 02:21:43;;;;;;;16.17;7.23;;;;;;;14.50;100.00;100501.20;1432591;91;21466;-79
2023/09/11 02:24:09;;;;;;;14.67;6.40;;;;;;;14.48;100.00;100500.05;1430558;91;21450;-79
2023/09/11 02:26:35;;;;;;;19.37;7.73;;;;;;;14.47;100.00;100495.70;1433844;91;21427;-80
2023/09/11 02:29:01;;;;;;;11.13;6.03;;;;;;;14.49;100.00;100498.22;1431901;91;22270;-79
2023/09/11 02:31:27;;;;;;;9.77;6.57;;;;;;;14.49;100.00;100495.55;1434665;90;21341;-80
2023/09/11 02:33:54;;;;;;;13.80;6.33;;;;;;;14.50;100.00;100494.53;1430750;91;21442;-79
2023/09/11 02:36:20;;;;;;;13.07;6.63;;;;;;;14.47;100.00;100497.55;1438799;90;21434;-79
2023/09/11 02:38:46;;;;;;;12.00;6.17;;;;;;;14.44;100.00;100498.23;1437023;91;21376;-80
2023/09/11 02:41:12;;;;;;;14.23;6.47;;;;;;;14.45;100.00;100492.41;1428748;91;21488;-80
2023/09/11 02:43:39;;;;;;;13.97;7.53;;;;;;;14.45;100.00;100489.23;1435484;91;22300;-80
2023/09/11 02:46:05;;;;;;;19.63;8.67;;;;;;;14.47;100.00;100492.22;1431153;90;21486;-80
2023/09/11 02:48:31;;;;;;;18.97;7.90;;;;;;;14.43;100.00;100493.89;1425480;91;21362;-80
2023/09/11 02:50:57;;;;;;;11.57;6.73;;;;;;;14.40;100.00;100488.91;1410328;91;22338;-80
2023/09/11 02:53:24;;;;;;;18.67;7.37;;;;;;;14.37;100.00;100493.76;1410281;91;21383;-80
2023/09/11 02:55:50;;;;;;;12.50;6.63;;;;;;;14.34;100.00;100490.94;1435092;91;21420;-80
2023/09/11 02:58:16;;;;;;;16.63;7.10;;;;;;;14.34;100.00;100489.60;1435083;91;21465;-80
2023/09/11 03:00:42;;;;;;;19.23;6.80;;;;;;;14.33;100.00;100485.29;1435894;91;21539;-80
2023/09/11 03:03:09;;;;;;;17.43;7.23;;;;;;;14.32;100.00;100483.61;1437083;91;21458;-80
2023/09/11 03:05:35;;;;;;;11.67;7.27;;;;;;;14.30;100.00;100482.97;1430320;91;21391;-80
2023/09/11 03:08:02;;;;;;;13.97;6.97;;;;;;;14.29;100.00;100483.95;1427686;91;22270;-80
2023/09/11 03:10:29;;;;;;;18.97;7.43;;;;;;;14.27;100.00;100481.98;1431585;90;22414;-80
2023/09/11 03:12:56;;;;;;;23.63;8.93;;;;;;;14.23;100.00;100484.64;1424718;91;21420;-79
2023/09/11 03:15:27;;;;;;;17.57;8.73;;;;;;;14.18;100.00;100477.17;1438287;91;21383;-80
2023/09/11 03:17:53;;;;;;;17.37;6.97;;;;;;;14.18;100.00;100486.97;1430124;91;21420;-79
2023/09/11 03:20:19;;;;;;;16.50;7.70;;;;;;;14.19;100.00;100485.98;1441755;91;21472;-80
2023/09/11 03:22:46;;;;;;;18.13;7.27;;;;;;;14.18;100.00;100478.98;1434881;91;22261;-81
2023/09/11 03:25:12;;;;;;;26.80;8.40;;;;;;;14.20;100.00;100478.32;1433345;91;21368;-80
2023/09/11 03:27:38;;;;;;;17.87;8.27;;;;;;;14.24;100.00;100480.95;1432657;91;21391;-81
2023/09/11 03:30:06;;;;;;;13.97;7.87;;;;;;;14.28;100.00;100484.14;1434955;91;21398;-80
2023/09/11 03:32:32;;;;;;;19.87;7.63;;;;;;;14.29;100.00;100477.30;1433721;91;21480;-79
2023/09/11 03:34:59;;;;;;;16.60;8.13;;;;;;;14.30;100.00;100484.77;1426187;91;22434;-79
2023/09/11 03:37:25;;;;;;;24.30;8.30;;;;;;;14.31;100.00;100479.30;1426116;91;21680;-79
2023/09/11 03:39:52;;;;;;;25.30;9.30;;;;;;;14.32;100.00;100481.45;1432794;91;21376;-79
2023/09/11 03:42:18;;;;;;;24.33;8.40;;;;;;;14.31;100.00;100483.80;1431363;90;21443;-79
2023/09/11 03:44:44;;;;;;;18.33;8.20;;;;;;;14.27;100.00;100483.31;1440713;91;22316;-80
2023/09/11 03:47:11;;;;;;;21.47;8.20;;;;;;;14.23;100.00;100483.30;1439286;91;22197;-79
2023/09/11 03:49:38;;;;;;;30.13;9.17;;;;;;;14.21;100.00;100483.96;1410782;91;21383;-80
2023/09/11 03:52:04;;;;;;;17.83;8.50;;;;;;;14.19;100.00;100484.66;1434229;90;21331;-80
2023/09/11 03:54:30;;;;;;;16.77;8.37;;;;;;;14.19;100.00;100482.00;1439899;91;21457;-80
2023/09/11 03:56:56;;;;;;;38.73;9.43;;;;;;;14.22;100.00;100485.65;1436402;91;21502;-79
2023/09/11 03:59:23;;;;;;;24.10;8.87;;;;;;;14.23;100.00;100480.14;1436402;91;21428;-81
2023/09/11 04:01:49;;;;;;;24.50;7.83;;;;;;;14.25;100.00;100478.65;1434241;91;21524;-80
2023/09/11 04:04:15;;;;;;;25.53;8.80;;;;;;;14.27;100.00;100483.78;1436050;91;21414;-80
2023/09/11 04:06:41;;;;;;;27.80;9.30;;;;;;;14.27;100.00;100476.66;1423498;91;21573;-85
2023/09/11 04:09:07;;;;;;;26.03;8.63;;;;;;;14.28;100.00;100486.80;1435660;91;21442;-84
2023/09/11 04:11:33;;;;;;;23.47;8.23;;;;;;;14.26;100.00;100480.30;1418419;91;21457;-83
2023/09/11 04:13:59;;;;;;;16.83;7.87;;;;;;;14.24;100.00;100480.95;1436059;91;21361;-84
2023/09/11 04:16:25;;;;;;;14.17;7.93;;;;;;;14.20;100.00;100486.30;1439388;91;21443;-85
2023/09/11 04:18:51;;;;;;;27.90;8.17;;;;;;;14.17;100.00;100485.31;1436963;91;22546;-86
2023/09/11 04:21:18;;;;;;;13.97;6.90;;;;;;;14.17;100.00;100489.31;1424721;91;21347;-85
2023/09/11 04:23:45;;;;;;;19.80;7.77;;;;;;;14.16;100.00;100488.98;1426087;90;21324;-85
2023/09/11 04:26:11;;;;;;;16.07;7.30;;;;;;;14.16;100.00;100486.33;1430335;90;22390;-84
2023/09/11 04:28:37;;;;;;;17.10;7.23;;;;;;;14.17;100.00;100491.97;1429773;90;21398;-85
2023/09/11 04:31:04;;;;;;;15.43;6.53;;;;;;;14.22;100.00;100501.62;1435226;90;21988;-85
2023/09/11 04:33:30;;;;;;;19.80;8.20;;;;;;;14.27;100.00;100499.28;1425695;91;21353;-85
2023/09/11 04:35:56;;;;;;;15.47;7.47;;;;;;;14.28;100.00;100495.61;1435239;91;21412;-85
2023/09/11 04:38:23;;;;;;;20.37;6.43;;;;;;;14.32;100.00;100496.92;1431234;91;21508;-86
2023/09/11 04:40:56;;;;;;;18.53;6.63;;;;;;;14.36;100.00;100494.77;1425447;91;21457;-87
2023/09/11 04:43:24;;;;;;;12.97;7.23;;;;;;;14.36;100.00;100496.92;1425271;91;21443;-89
2023/09/11 04:45:50;;;;;;;13.53;6.63;;;;;;;14.38;100.00;100496.23;1425314;91;22566;-86
2023/09/11 04:48:17;;;;;;;17.00;6.93;;;;;;;14.40;100.00;100490.75;1424020;91;21436;-86
2023/09/11 04:50:43;;;;;;;23.43;7.30;;;;;;;14.43;100.00;100493.07;1425585;91;21355;-85
2023/09/11 04:53:09;;;;;;;18.40;6.73;;;;;;;14.50;100.00;100486.08;1431000;91;21510;-83
2023/09/11 04:55:35;;;;;;;15.07;6.00;;;;;;;14.59;100.00;100481.58;1431751;91;21435;-85
2023/09/11 04:58:02;;;;;;;16.03;7.10;;;;;;;14.68;100.00;100479.71;1436826;91;21332;-85
2023/09/11 05:00:29;;;;;;;18.80;7.27;;;;;;;14.72;100.00;100476.52;1417938;91;21370;-84
2023/09/11 05:02:55;;;;;;;16.77;7.13;;;;;;;14.76;100.00;100482.31;1426970;91;22249;-85
2023/09/11 05:05:22;;;;;;;15.87;7.97;;;;;;;14.77;100.00;100474.16;1428299;91;22271;-85
2023/09/11 05:07:48;;;;;;;13.20;6.20;;;;;;;14.81;100.00;100478.13;1394987;91;22933;-86
2023/09/11 05:10:14;;;;;;;20.23;6.60;;;;;;;14.87;100.00;100478.79;1427672;91;21348;-86
2023/09/11 05:12:40;;;;;;;19.87;6.13;;;;;;;14.95;100.00;100479.23;1430612;91;21510;-82
2023/09/11 05:15:07;;;;;;;16.67;7.17;;;;;;;15.00;100.00;100476.88;1432039;91;21517;-84
2023/09/11 05:17:34;;;;;;;16.80;6.50;;;;;;;15.09;100.00;100481.66;1427778;91;21377;-86
2023/09/11 05:20:00;;;;;;;18.13;7.07;;;;;;;15.14;100.00;100484.64;1427569;91;21568;-85
2023/09/11 05:22:26;;;;;;;15.00;7.30;;;;;;;15.17;100.00;100484.79;1432536;91;21772;-80
2023/09/11 05:24:53;;;;;;;17.80;7.23;;;;;;;15.20;100.00;100476.44;1417065;91;21539;-81
2023/09/11 05:27:21;;;;;;;22.77;7.07;;;;;;;15.22;100.00;100480.59;1427127;91;21435;-82
2023/09/11 05:29:49;;;;;;;27.53;8.43;;;;;;;15.28;100.00;100483.88;1424396;91;21406;-84
2023/09/11 05:32:15;;;;;;;28.93;6.60;;;;;;;15.32;100.00;100486.50;1422080;91;21902;-84
2023/09/11 05:34:41;;;;;;;25.73;8.77;;;;;;;15.41;100.00;100483.78;1426943;91;21428;-83
2023/09/11 05:37:07;;;;;;;22.27;7.97;;;;;;;15.49;100.00;100479.73;1432990;91;21634;-83
2023/09/11 05:39:34;;;;;;;20.03;7.40;;;;;;;15.54;100.00;100482.70;1435041;91;21503;-82
2023/09/11 05:42:00;;;;;;;11.17;6.50;;;;;;;15.63;100.00;100484.29;1426578;91;21391;-82
2023/09/11 05:44:26;;;;;;;14.47;6.87;;;;;;;15.74;100.00;100488.41;1437175;91;21302;-83
2023/09/11 05:46:52;;;;;;;11.90;8.03;;;;;;;15.88;100.00;100493.44;1433806;91;22314;-81
2023/09/11 05:49:21;;;;;;;16.83;7.53;;;;;;;15.92;100.00;100494.75;1435204;90;21399;-83
2023/09/11 05:51:47;;;;;;;17.30;6.30;;;;;;;15.92;100.00;100488.91;1432729;90;21591;-84
2023/09/11 05:54:13;;;;;;;16.03;8.23;;;;;;;15.98;100.00;100495.36;1430464;91;21383;-85
2023/09/11 05:56:39;;;;;;;15.73;8.53;;;;;;;16.08;100.00;100491.91;1434956;91;21406;-85
2023/09/11 05:59:05;;;;;;;20.83;9.47;;;;;;;16.24;100.00;100494.42;1434159;91;21332;-85
2023/09/11 06:01:31;;;;;;;17.77;8.97;;;;;;;16.41;100.00;100503.61;1437265;91;21428;-85
2023/09/11 06:03:58;;;;;;;17.93;8.87;;;;;;;16.54;100.00;100499.77;1434684;90;21443;-82
2023/09/11 06:06:24;;;;;;;23.87;10.30;;;;;;;16.72;100.00;100503.93;1428247;91;22351;-85
2023/09/11 06:08:51;;;;;;;18.47;8.70;;;;;;;16.87;100.00;100504.77;1442005;90;21287;-85
2023/09/11 06:11:17;;;;;;;11.67;8.53;;;;;;;17.02;100.00;100512.23;1443226;90;21428;-86
2023/09/11 06:13:43;;;;;;;17.93;9.80;;;;;;;17.11;100.00;100504.42;1426917;91;21331;-85
2023/09/11 06:16:09;;;;;;;26.67;10.37;;;;;;;17.18;100.00;100509.86;1433442;91;21583;-83
2023/09/11 06:18:35;;;;;;;23.67;9.97;;;;;;;17.25;100.00;100512.60;1426720;91;21398;-85
2023/09/11 06:21:02;;;;;;;17.70;9.97;;;;;;;17.41;100.00;100508.36;1436839;91;22292;-84
2023/09/11 06:23:28;;;;;;;18.20;9.70;;;;;;;17.63;100.00;100509.69;1432577;90;21304;-84
2023/09/11 06:25:54;;;;;;;14.90;9.00;;;;;;;17.86;100.00;100500.96;1431802;91;21405;-86
2023/09/11 06:28:21;;;;;;;18.23;9.70;;;;;;;18.06;100.00;100506.98;1429673;91;21397;-84
2023/09/11 06:30:47;;;;;;;14.78;8.45;;;;;;;18.21;100.00;100503.69;1427014;91;21602;-84
2023/09/11 06:33:13;;;;;;;18.92;10.03;;;;;;;18.40;100.00;100502.17;1432851;90;21414;-85
2023/09/11 06:35:40;;;;;;;25.05;12.93;;;;;;;18.53;100.00;100505.44;1442477;91;22273;-84
2023/09/11 06:38:06;;;;;;;16.42;9.28;;;;;;;18.62;100.00;100506.95;1430136;90;21443;-85
2023/09/11 06:40:34;;;;;;;16.95;10.05;;;;;;;18.65;100.00;100512.73;1429360;91;21318;-85
2023/09/11 06:43:00;;;;;;;22.20;10.25;;;;;;;18.79;100.00;100509.64;1429017;91;21526;-84
2023/09/11 06:45:26;;;;;;;14.93;8.90;;;;;;;18.96;100.00;100512.81;1422356;91;21484;-84
2023/09/11 06:47:53;;;;;;;22.67;9.55;;;;;;;19.12;100.00;100511.61;1425113;91;21495;-84
2023/09/11 06:50:19;;;;;;;16.35;10.55;;;;;;;19.29;100.00;100513.42;1435021;91;21458;-84
2023/09/11 06:52:45;;;;;;;17.82;10.30;;;;;;;19.49;100.00;100514.29;1434986;91;22442;-84
2023/09/11 06:55:11;;;;;;;20.85;10.20;;;;;;;19.67;100.00;100516.41;1424690;91;21421;-84
2023/09/11 06:57:42;;;;;;;24.32;15.65;;;;;;;19.81;100.00;100518.06;1423004;91;21391;-85
2023/09/11 07:00:11;;;;;;;27.95;12.10;;;;;;;19.95;100.00;100512.70;1425347;91;21451;-85
2023/09/11 07:02:39;;;;;;;20.10;11.65;;;;;;;20.06;100.00;100510.22;1431081;91;21273;-83
2023/09/11 07:05:06;;;;;;;24.92;11.18;;;;;;;20.23;100.00;100507.94;1426253;91;22249;-83
2023/09/11 07:07:32;;;;;;;23.55;10.48;;;;;;;20.41;100.00;100505.93;1429794;91;21560;-84
2023/09/11 07:09:58;;;;;;;21.33;9.83;;;;;;;20.61;100.00;100516.66;1403184;91;21414;-84
2023/09/11 07:12:24;;;;;;;22.20;11.95;;;;;;;20.69;100.00;100513.75;1429707;91;22301;-82
2023/09/11 07:14:54;;;;;;;19.12;10.18;;;;;;;20.77;100.00;100517.23;1424388;91;21376;-84
2023/09/11 07:17:20;;;;;;;19.80;10.32;;;;;;;20.76;100.00;100518.27;1431415;91;21376;-84
2023/09/11 07:19:47;;;;;;;16.73;9.20;;;;;;;20.74;100.00;100517.12;1421386;91;21520;-85
2023/09/11 07:22:13;;;;;;;23.02;9.35;;;;;;;20.82;100.00;100516.89;1399238;91;22344;-85
2023/09/11 07:24:40;;;;;;;23.75;9.60;;;;;;;20.99;100.00;100517.25;1423645;91;21724;-84
2023/09/11 07:27:06;;;;;;;20.57;8.85;;;;;;;21.24;100.00;100521.91;1426383;91;21428;-84
2023/09/11 07:29:32;;;;;;;18.92;8.88;;;;;;;21.46;100.00;100515.15;1431312;91;21540;-85
2023/09/11 07:31:59;;;;;;;20.23;9.43;;;;;;;21.69;100.00;100520.48;1431245;91;22359;-84
2023/09/11 07:34:26;;;;;;;29.25;9.33;;;;;;;21.84;100.00;100518.33;1424498;91;21450;-86
2023/09/11 07:36:52;;;;;;;24.77;11.18;;;;;;;22.01;100.00;100519.42;1422167;91;21528;-85
2023/09/11 07:39:19;;;;;;;19.60;8.43;;;;;;;22.19;100.00;100510.58;1412591;91;21634;-85
2023/09/11 07:41:47;;;;;;;22.22;10.25;;;;;;;22.26;100.00;100515.89;1428263;91;21940;-84
2023/09/11 07:44:14;;;;;;;20.15;9.35;;;;;;;22.29;100.00;100515.45;1426608;91;22274;-85
2023/09/11 07:46:41;;;;;;;26.60;9.43;;;;;;;22.43;100.00;100511.56;1427934;91;21546;-85
2023/09/11 07:49:07;;;;;;;23.95;9.53;;;;;;;22.47;100.00;100505.20;1429797;91;21347;-84
2023/09/11 07:51:33;;;;;;;21.48;8.75;;;;;;;22.55;100.00;100506.25;1423705;91;21554;-84
2023/09/11 07:53:59;;;;;;;23.98;8.60;;;;;;;22.69;100.00;100505.58;1426152;91;22242;-84
2023/09/11 07:56:26;;;;;;;23.65;8.18;;;;;;;22.87;100.00;100508.28;1425575;91;21384;-83
2023/09/11 07:58:54;;;;;;;18.73;7.47;;;;;;;23.06;100.00;100512.33;1436532;91;22264;-83
2023/09/11 08:01:21;;;;;;;21.52;8.60;;;;;;;23.14;100.00;100506.08;1428572;91;21361;-84
2023/09/11 08:03:48;;;;;;;20.45;7.53;;;;;;;23.29;100.00;100503.50;1413770;91;22308;-83
2023/09/11 08:06:14;;;;;;;16.82;6.67;;;;;;;23.46;100.00;100503.14;1428244;91;21370;-84
2023/09/11 08:08:41;;;;;;;28.80;8.93;;;;;;;23.59;100.00;100500.75;1424787;91;21518;-81
2023/09/11 08:11:16;;;;;;;28.45;8.65;;;;;;;23.70;100.00;100501.83;1430504;91;21428;-83
2023/09/11 08:13:46;;;;;;;21.10;8.55;;;;;;;23.83;100.00;100500.31;1426497;91;21591;-84
2023/09/11 08:16:11;;;;;;;25.97;8.58;;;;;;;24.00;100.00;100497.74;1426840;91;22433;-81
2023/09/11 08:18:38;;;;;;;33.18;9.43;;;;;;;24.17;100.00;100497.84;1429882;91;21406;-83
2023/09/11 08:21:04;;;;;;;13.85;8.25;;;;;;;24.31;100.00;100491.97;1430353;91;21504;-83
2023/09/11 08:23:30;;;;;;;27.02;8.43;;;;;;;24.48;100.00;100500.19;1432359;91;22315;-85
2023/09/11 08:25:58;;;;;;;22.27;8.23;;;;;;;24.58;100.00;100490.13;1431057;91;21443;-82
2023/09/11 08:28:24;;;;;;;24.72;8.90;;;;;;;24.61;100.00;100499.13;1426984;91;21561;-84
2023/09/11 08:30:50;;;;;;;21.45;8.23;;;;;;;24.69;100.00;100487.94;1420322;91;21450;-84
2023/09/11 08:33:17;;;;;;;23.55;7.65;;;;;;;24.82;100.00;100494.13;1425212;91;21391;-86
2023/09/11 08:35:43;;;;;;;26.25;7.53;;;;;;;25.00;100.00;100498.00;1424896;91;22845;-83
2023/09/11 08:38:19;;;;;;;19.52;8.18;;;;;;;25.15;100.00;100489.40;1426848;91;21369;-83
2023/09/11 08:40:46;;;;;;;23.05;7.92;;;;;;;25.34;100.00;100494.06;1426300;90;21890;-84
2023/09/11 08:43:12;;;;;;;15.08;7.00;;;;;;;25.53;100.00;100487.36;1428306;91;21531;-84
2023/09/11 08:45:39;;;;;;;18.17;7.72;;;;;;;25.66;100.00;100488.41;1432703;91;22507;-84
2023/09/11 08:48:15;;;;;;;23.35;8.23;;;;;;;25.82;100.00;100488.64;1434513;91;21449;-83
2023/09/11 08:50:52;;;;;;;24.47;8.03;;;;;;;25.97;100.00;100483.47;1426942;90;21535;-86
2023/09/11 08:53:19;;;;;;;19.82;7.47;;;;;;;26.15;100.00;100489.70;1421607;91;21472;-80
2023/09/11 08:55:47;;;;;;;31.75;7.78;;;;;;;26.25;100.00;100485.78;1429790;91;21531;-83
2023/09/11 08:58:17;;;;;;;16.95;7.53;;;;;;;26.34;100.00;100481.56;1433954;91;21376;-83
2023/09/11 09:00:43;;;;;;;;;;;;;;;26.43;100.00;100486.84;1432652;90;22387;-82
2023/09/11 09:03:10;;;;;;;26.25;8.00;;;;;;;26.45;100.00;100483.34;1429755;90;20272;-84
2023/09/11 09:05:36;;;;;;;30.80;7.70;;;;;;;26.53;100.00;100482.95;1412392;91;21398;-79
2023/09/11 09:08:06;;;;;;;15.55;7.00;;;;;;;26.67;100.00;100484.75;1428760;90;21353;-82
2023/09/11 09:10:32;;;;;;;21.37;7.33;;;;;;;26.85;100.00;100480.88;1429804;90;21338;-83
2023/09/11 09:13:06;;;;;;;21.82;7.65;;;;;;;26.98;100.00;100476.39;1413633;91;22448;-83
2023/09/11 09:15:36;;;;;;;23.52;8.55;;;;;;;27.12;100.00;100480.08;1431284;91;21657;-84
2023/09/11 09:18:02;;;;;;;21.95;7.67;;;;;;;27.23;100.00;100475.06;1357595;91;21238;-82
2023/09/11 09:20:32;;;;;;;20.02;8.53;;;;;;;27.31;100.00;100472.42;1487551;91;21347;-83
2023/09/11 09:23:00;;;;;;;26.65;6.87;;;;;;;27.36;100.00;100469.22;1351813;91;21356;-85
2023/09/11 09:25:28;;;;;;;25.82;7.78;;;;;;;27.48;100.00;100468.20;1432411;90;21619;-85
2023/09/11 09:27:57;;;;;;;27.20;7.10;;;;;;;27.56;100.00;100460.94;1431990;90;21862;-84
2023/09/11 09:30:29;;;;;;;24.27;7.70;;;;;;;27.56;100.00;100458.22;1427209;90;22773;-84
2023/09/11 09:32:56;;;;;;;23.70;6.70;;;;;;;27.38;100.00;100461.61;1445491;91;21368;-84
2023/09/11 09:35:26;;;;;;;25.40;7.15;;;;;;;27.48;100.00;100447.30;1440879;91;21317;-83
2023/09/11 09:37:55;;;;;;;30.23;7.78;;;;;;;27.65;100.00;100449.89;1440910;91;21339;-85
2023/09/11 09:40:39;;;;;;;28.67;8.70;;;;;;;27.79;100.00;100447.00;1424600;91;21472;-84
2023/09/11 09:43:09;;;;;;;26.12;7.10;;;;;;;27.88;100.00;100449.53;1430665;91;21496;-86
2023/09/11 09:45:44;;;;;;;;;;;;;;;27.90;100.00;100445.18;1422521;91;21479;-83
2023/09/11 09:48:20;;;;;;;26.82;7.83;;;;;;;27.88;100.00;100445.45;1431726;91;20280;-85
2023/09/11 09:50:59;;;;;;;18.98;6.67;;;;;;;27.89;100.00;100448.45;1428903;91;21591;-83
2023/09/11 09:53:33;;;;;;;20.70;7.47;;;;;;;27.99;100.00;100444.14;1425536;91;21421;-83
2023/09/11 09:56:07;;;;;;;21.05;6.33;;;;;;;28.13;100.00;100439.33;1424646;91;22353;-82
2023/09/11 09:58:43;;;;;;;20.17;6.95;;;;;;;28.27;100.00;100436.95;1503484;91;22021;-84
2023/09/11 10:01:16;;;;;;;32.45;7.97;;;;;;;28.31;89.34;100434.00;1424095;91;21639;-84
2023/09/11 10:03:50;;;;;;;32.65;6.95;;;;;;;28.42;88.31;100434.87;1423695;91;21369;-85
2023/09/11 10:06:20;;;;;;;25.77;6.55;;;;;;;28.46;81.51;100433.81;1424272;91;21406;-80
2023/09/11 10:08:47;;;;;;;;;;;;;;;28.53;71.80;100430.29;1429359;91;21510;-80
2023/09/11 10:11:30;;;;;;;20.52;6.67;;;;;;;28.57;71.10;100430.05;1428376;91;20340;-80
2023/09/11 10:13:59;;;;;;;17.42;6.17;;;;;;;28.66;69.64;100424.91;1429125;91;21436;-80
2023/09/11 10:16:27;;;;;;;25.50;6.33;;;;;;;28.74;68.30;100422.48;1412536;91;22054;-80
2023/09/11 10:18:55;;;;;;;21.37;6.15;;;;;;;28.76;67.53;100422.19;1426761;91;21399;-80
2023/09/11 10:21:24;;;;;;;24.98;6.08;;;;;;;28.54;52.02;100413.70;1421583;91;21499;-80
2023/09/11 10:23:51;;;;;;;17.23;6.22;;;;;;;28.54;51.78;100410.14;1427364;91;21457;-81
2023/09/11 10:26:23;;;;;;;21.52;7.70;;;;;;;28.63;52.92;100411.28;1429379;91;21452;-81
2023/09/11 10:29:01;;;;;;;18.07;7.25;;;;;;;28.76;53.03;100407.22;1430466;91;21531;-80
2023/09/11 10:31:44;;;;;;;26.75;6.67;;;;;;;28.90;52.44;100402.07;1425359;91;21502;-81
2023/09/11 10:34:11;;;;;;;16.45;6.67;;;;;;;28.97;51.39;100405.34;1429325;91;22366;-80
2023/09/11 10:36:40;;;;;;;18.92;6.33;;;;;;;29.00;52.27;100396.62;1431545;91;21376;-81
2023/09/11 10:39:10;;;;;;;24.45;7.53;;;;;;;29.07;52.10;100397.22;1426739;91;21421;-80
2023/09/11 10:41:37;;;;;;;19.95;7.12;;;;;;;29.18;52.90;100401.59;1428296;91;21436;-80
2023/09/11 10:44:04;;;;;;;22.95;6.90;;;;;;;29.16;51.14;100395.58;1422595;91;21461;-80
2023/09/11 10:46:34;;;;;;;21.27;6.28;;;;;;;29.24;52.29;100395.05;1429750;91;21377;-81
2023/09/11 10:49:03;;;;;;;16.82;5.85;;;;;;;29.30;52.37;100389.05;1433104;91;21532;-80
2023/09/11 10:51:29;;;;;;;19.15;6.75;;;;;;;29.36;52.46;100385.23;1408803;91;21435;-80
2023/09/11 10:53:56;;;;;;;18.85;6.80;;;;;;;29.35;51.85;100380.88;1434206;91;21347;-80
2023/09/11 10:56:22;;;;;;;28.83;6.50;;;;;;;29.38;52.15;100378.16;1426131;91;22352;-81
2023/09/11 10:58:58;;;;;;;29.23;6.37;;;;;;;29.51;52.42;100388.48;1423690;91;21473;-81
2023/09/11 11:01:24;;;;;;;24.57;6.47;;;;;;;29.52;50.08;100377.86;1429703;91;21682;-80
2023/09/11 11:03:52;;;;;;;25.65;7.75;;;;;;;29.50;50.97;100383.32;1429764;91;21361;-81
2023/09/11 11:06:20;;;;;;;28.05;7.20;;;;;;;29.54;51.36;100377.02;1426452;91;21325;-81
2023/09/11 11:08:48;;;;;;;24.30;6.40;;;;;;;29.64;51.47;100376.23;1411397;91;21429;-81
2023/09/11 11:11:22;;;;;;;27.48;6.90;;;;;;;29.76;52.07;100374.58;1425443;91;22674;-81